Terminal Aerodrome Forecast
Issued by NWS Cleveland, OH

Home | Current Version | Previous Version | Graphics & Text | Print | Product List | Glossary On
Versions: 1 2 3 4 5 6 7 8 9 10 11 12 13 14 15 16 17 18 19 20 21
000
FTUS41 KCLE 240800 AAA
TAFTOL
TAF AMD
KTOL 240824Z 2408/2506 05008KT 2SM BR OVC003
     FM241800 13010KT P6SM OVC006
     FM242000 18015G25KT P6SM -SHRA OVC008
     FM242200 24022G35KT P6SM OVC012=

USA.gov is the U.S. government's official web portal to all federal, state and local government web resources and services.